Time;durP1;ratioP1;P1;durP2;ratioP2;P2;SDS_P1;SDS_P2;PMS_P1;PMS_P2;Temp;Humidity;BMP_temperature;BMP_pressure;BME280_temperature;BME280_humidity;BME280_pressure;Samples;Min_cycle;Max_cycle;Signal;HPM_P1;HPM_P2
2023/08/30 00:00:21;;;;;;;18.15;13.27;;;;;;;20.68;73.55;98223.69;5115364;27;20028;-70
2023/08/30 00:02:46;;;;;;;16.65;12.68;;;;;;;20.90;72.77;98215.59;5128136;27;20049;-71
2023/08/30 00:05:13;;;;;;;16.30;11.98;;;;;;;20.75;73.21;98204.47;5135773;27;20418;-70
2023/08/30 00:07:39;;;;;;;15.75;11.50;;;;;;;20.86;73.00;98200.66;5104277;28;20030;-70
2023/08/30 00:10:10;;;;;;;16.05;12.10;;;;;;;20.84;73.18;98200.31;5114465;27;20060;-70
2023/08/30 00:12:38;;;;;;;18.58;12.45;;;;;;;20.76;73.75;98203.25;5115277;27;20023;-70
2023/08/30 00:15:05;;;;;;;20.50;12.85;;;;;;;20.83;73.50;98201.53;5114874;27;20024;-74
2023/08/30 00:17:30;;;;;;;15.85;12.45;;;;;;;20.70;74.00;98207.03;5114206;27;20054;-74
2023/08/30 00:19:56;;;;;;;27.85;12.88;;;;;;;20.79;73.96;98210.09;5100246;27;20495;-74
2023/08/30 00:22:22;;;;;;;22.95;12.80;;;;;;;20.81;73.56;98210.50;5121855;27;20498;-74
2023/08/30 00:24:47;;;;;;;17.80;11.40;;;;;;;20.78;73.83;98211.34;5107910;27;20138;-74
2023/08/30 00:27:13;;;;;;;21.30;12.38;;;;;;;20.80;73.40;98203.19;5122035;27;20058;-74
2023/08/30 00:29:38;;;;;;;15.55;12.68;;;;;;;20.96;72.87;98196.81;5133285;27;20035;-74
2023/08/30 00:32:04;;;;;;;18.35;11.85;;;;;;;21.25;71.83;98201.09;5116350;27;20034;-74
2023/08/30 00:34:29;;;;;;;16.63;12.00;;;;;;;21.45;70.71;98201.84;5118816;27;20027;-74
2023/08/30 00:36:55;;;;;;;20.95;13.10;;;;;;;21.38;70.51;98204.88;5114640;27;20031;-74
2023/08/30 00:39:20;;;;;;;16.67;11.40;;;;;;;21.78;68.94;98211.72;5117337;27;20038;-74
2023/08/30 00:41:46;;;;;;;17.42;11.15;;;;;;;22.08;68.33;98212.63;5117742;27;20413;-74
2023/08/30 00:44:11;;;;;;;14.32;11.05;;;;;;;22.18;67.90;98217.25;5116591;27;20483;-74
2023/08/30 00:46:37;;;;;;;19.65;11.30;;;;;;;21.99;68.17;98205.53;5114390;28;20411;-74
2023/08/30 00:49:04;;;;;;;20.80;12.05;;;;;;;22.24;67.34;98209.81;5095169;28;20118;-74
2023/08/30 00:51:30;;;;;;;33.90;12.02;;;;;;;22.50;66.39;98209.16;5118346;27;20031;-74
2023/08/30 00:53:56;;;;;;;12.77;10.95;;;;;;;22.58;66.12;98196.34;5132003;27;20587;-74
2023/08/30 00:56:22;;;;;;;18.20;10.88;;;;;;;22.82;65.08;98207.50;5122310;27;20081;-74
2023/08/30 00:58:49;;;;;;;14.27;11.40;;;;;;;22.89;64.50;98204.47;5113830;27;20094;-74
2023/08/30 01:01:16;;;;;;;17.98;10.70;;;;;;;22.93;64.22;98205.16;5103041;27;20034;-74
2023/08/30 01:03:41;;;;;;;14.57;11.07;;;;;;;23.04;63.67;98216.25;5134812;27;20031;-74
2023/08/30 01:06:07;;;;;;;17.02;11.10;;;;;;;21.84;68.13;98210.75;5134587;27;20027;-74
2023/08/30 01:08:33;;;;;;;18.08;12.55;;;;;;;21.62;69.50;98218.97;5115958;27;20027;-74
2023/08/30 01:11:16;;;;;;;18.38;11.95;;;;;;;22.04;67.93;98217.63;5133469;27;20539;-75
2023/08/30 01:13:52;;;;;;;19.27;12.65;;;;;;;21.72;68.94;98220.00;5129248;27;20530;-74
2023/08/30 01:16:21;;;;;;;16.05;12.10;;;;;;;21.41;69.81;98208.84;5134256;27;20023;-74
2023/08/30 01:18:48;;;;;;;20.60;11.25;;;;;;;21.59;69.24;98217.81;5133892;27;20107;-74
2023/08/30 01:21:27;;;;;;;19.98;11.40;;;;;;;21.71;68.71;98224.09;5134285;27;20495;-74
2023/08/30 01:24:02;;;;;;;19.00;13.02;;;;;;;21.55;69.02;98221.97;5133762;27;20427;-74
2023/08/30 01:27:02;;;;;;;18.15;13.23;;;;;;;21.56;69.23;98229.25;5132640;27;20047;-74
2023/08/30 01:29:30;;;;;;;;;;;;;;;21.50;69.26;98233.88;5126071;27;20110;-74
2023/08/30 01:31:56;;;;;;;20.63;12.93;;;;;;;21.62;68.76;98232.38;5125797;27;20000;-74
2023/08/30 01:34:22;;;;;;;13.63;11.55;;;;;;;21.41;69.06;98245.81;5133822;27;20027;-74
2023/08/30 01:36:49;;;;;;;16.23;11.63;;;;;;;21.37;68.76;98243.09;5133557;27;20031;-74
2023/08/30 01:39:16;;;;;;;29.13;14.25;;;;;;;21.11;69.53;98236.31;5115358;27;20019;-74
2023/08/30 01:41:42;;;;;;;16.50;10.88;;;;;;;21.52;68.42;98246.41;5131716;27;20506;-74
2023/08/30 01:44:09;;;;;;;17.65;12.13;;;;;;;21.66;67.47;98244.47;5115263;27;20027;-74
2023/08/30 01:46:36;;;;;;;16.52;11.82;;;;;;;21.18;69.14;98244.69;5123801;27;20028;-74
2023/08/30 01:49:04;;;;;;;19.27;13.02;;;;;;;20.80;70.67;98242.13;5113564;27;20092;-74
2023/08/30 01:51:30;;;;;;;17.17;12.80;;;;;;;20.61;71.82;98241.69;5113032;28;20098;-74
2023/08/30 01:53:57;;;;;;;21.73;13.43;;;;;;;20.68;71.83;98244.38;5113012;28;20143;-74
2023/08/30 01:56:23;;;;;;;18.08;13.30;;;;;;;20.72;71.36;98242.28;5094128;28;20035;-74
2023/08/30 01:58:48;;;;;;;16.75;13.82;;;;;;;20.52;72.17;98228.06;5112830;28;20051;-74
2023/08/30 02:01:15;;;;;;;22.90;13.30;;;;;;;20.52;72.03;98228.06;5113823;27;20042;-74
2023/08/30 02:03:44;;;;;;;19.08;13.60;;;;;;;20.73;71.64;98237.38;5107507;28;20503;-74
2023/08/30 02:06:46;;;;;;;18.08;12.45;;;;;;;20.76;70.93;98243.00;5113715;27;20454;-74
2023/08/30 02:09:20;;;;;;;16.17;12.88;;;;;;;20.69;71.29;98248.03;5114737;27;20051;-74
2023/08/30 02:11:49;;;;;;;27.10;14.02;;;;;;;20.85;70.97;98241.69;5127473;27;20073;-74
2023/08/30 02:14:17;;;;;;;19.98;13.35;;;;;;;20.76;71.20;98236.53;5113475;27;20038;-74
2023/08/30 02:16:45;;;;;;;19.15;13.52;;;;;;;20.80;71.07;98240.13;5108642;28;20016;-74
2023/08/30 02:19:11;;;;;;;20.73;13.52;;;;;;;20.47;72.23;98228.53;5112049;28;20143;-74
2023/08/30 02:21:37;;;;;;;20.58;13.18;;;;;;;20.45;72.80;98222.50;5128737;27;20514;-74
2023/08/30 02:24:03;;;;;;;17.75;13.77;;;;;;;20.50;72.60;98224.81;5113693;27;20056;-74
2023/08/30 02:26:28;;;;;;;17.83;13.80;;;;;;;20.42;73.17;98237.56;5100904;28;20499;-74
2023/08/30 02:28:54;;;;;;;22.83;14.80;;;;;;;20.32;73.24;98225.94;5127449;27;20026;-74
2023/08/30 02:31:19;;;;;;;24.60;13.52;;;;;;;20.27;73.74;98229.28;5114121;27;20034;-74
2023/08/30 02:33:45;;;;;;;18.50;13.32;;;;;;;20.38;73.23;98231.94;5112596;27;20035;-74
2023/08/30 02:36:10;;;;;;;17.02;12.23;;;;;;;20.23;73.99;98233.41;5110899;27;20042;-74
2023/08/30 02:38:36;;;;;;;22.40;13.23;;;;;;;20.12;74.78;98233.59;5111786;27;20080;-74
2023/08/30 02:41:04;;;;;;;18.83;12.75;;;;;;;19.92;75.34;98220.91;5120569;27;20019;-74
2023/08/30 02:43:30;;;;;;;18.98;12.63;;;;;;;19.94;75.33;98229.00;5127625;27;20041;-74
2023/08/30 02:45:56;;;;;;;17.15;12.32;;;;;;;19.83;75.72;98217.00;5125380;27;20023;-74
2023/08/30 02:48:21;;;;;;;20.60;12.82;;;;;;;19.91;75.51;98233.47;5120833;27;20042;-74
2023/08/30 02:50:47;;;;;;;20.48;13.60;;;;;;;19.87;75.64;98235.56;5117958;27;20064;-74
2023/08/30 02:53:12;;;;;;;19.73;12.80;;;;;;;19.86;75.49;98233.97;5125555;27;20027;-74
2023/08/30 02:55:38;;;;;;;15.90;12.18;;;;;;;19.86;75.76;98238.81;5092606;28;20096;-74
2023/08/30 02:58:03;;;;;;;16.95;11.80;;;;;;;19.87;75.76;98238.41;5119718;27;20046;-74
2023/08/30 03:00:29;;;;;;;18.95;12.20;;;;;;;19.88;75.86;98242.03;5116815;27;20026;-74
2023/08/30 03:02:55;;;;;;;16.05;12.27;;;;;;;19.88;75.89;98247.69;5114050;27;20047;-74
2023/08/30 03:05:21;;;;;;;22.83;12.70;;;;;;;19.90;75.62;98239.56;5131231;27;20085;-74
2023/08/30 03:07:46;;;;;;;24.48;12.30;;;;;;;19.99;75.20;98242.69;5129346;27;20031;-74
2023/08/30 03:10:12;;;;;;;19.70;11.52;;;;;;;20.03;74.95;98243.47;5124206;27;20028;-74
2023/08/30 03:12:38;;;;;;;20.98;11.13;;;;;;;20.11;74.81;98252.66;5129793;27;20023;-74
2023/08/30 03:15:04;;;;;;;20.17;11.73;;;;;;;20.14;74.45;98257.47;5124062;27;20053;-74
2023/08/30 03:17:30;;;;;;;22.85;11.35;;;;;;;20.03;74.49;98259.66;5097052;27;20035;-74
2023/08/30 03:19:56;;;;;;;24.20;12.98;;;;;;;19.97;74.76;98265.03;5130935;27;20022;-74
2023/08/30 03:22:21;;;;;;;22.02;11.82;;;;;;;20.07;74.13;98260.41;5124697;27;20034;-74
2023/08/30 03:24:47;;;;;;;18.67;11.00;;;;;;;20.12;74.05;98265.63;5129002;27;20031;-74
2023/08/30 03:27:13;;;;;;;23.73;13.25;;;;;;;20.00;74.04;98261.31;5111723;28;20059;-74
2023/08/30 03:29:38;;;;;;;20.42;11.63;;;;;;;20.13;73.59;98264.38;5111925;28;20032;-74
2023/08/30 03:32:04;;;;;;;25.13;12.13;;;;;;;20.14;73.47;98265.16;5093100;28;20096;-74
2023/08/30 03:34:30;;;;;;;17.15;12.35;;;;;;;20.21;72.64;98256.56;5113485;28;20024;-74
2023/08/30 03:36:55;;;;;;;16.55;12.75;;;;;;;20.16;72.71;98266.34;5130632;28;20038;-74
2023/08/30 03:39:21;;;;;;;25.60;11.85;;;;;;;20.12;72.90;98248.59;5130507;28;20034;-74
2023/08/30 03:41:47;;;;;;;23.05;13.43;;;;;;;20.24;72.81;98266.25;5112271;28;20031;-74
2023/08/30 03:44:12;;;;;;;19.90;11.70;;;;;;;20.16;73.02;98274.09;5100056;28;20038;-74
2023/08/30 03:46:38;;;;;;;23.95;12.38;;;;;;;20.18;72.78;98268.78;5111830;28;20042;-74
2023/08/30 03:49:03;;;;;;;21.65;12.73;;;;;;;20.29;72.54;98283.59;5111297;28;20072;-74
2023/08/30 03:51:29;;;;;;;25.65;12.38;;;;;;;20.27;72.49;98280.41;5098804;28;20513;-74
2023/08/30 03:53:56;;;;;;;28.15;13.68;;;;;;;20.25;72.43;98282.03;5117014;28;20023;-75
2023/08/30 03:56:22;;;;;;;18.55;11.23;;;;;;;20.19;72.81;98285.34;5106766;28;20073;-74
2023/08/30 03:58:47;;;;;;;30.95;14.48;;;;;;;20.15;72.92;98287.47;5111754;28;20051;-74
2023/08/30 04:01:13;;;;;;;19.95;13.43;;;;;;;20.02;73.64;98306.31;5094831;28;20047;-74
2023/08/30 04:03:39;;;;;;;21.52;12.85;;;;;;;19.90;74.01;98299.97;5111457;28;20407;-74
2023/08/30 04:06:05;;;;;;;18.23;11.75;;;;;;;19.95;73.48;98287.34;5100742;28;20019;-75
2023/08/30 04:08:30;;;;;;;75.05;15.13;;;;;;;20.03;73.46;98290.88;5110932;28;20052;-74
2023/08/30 04:10:56;;;;;;;41.72;14.20;;;;;;;20.03;73.10;98300.22;5112713;28;20480;-74
2023/08/30 04:13:21;;;;;;;49.13;14.35;;;;;;;20.18;72.60;98294.31;5121360;28;20023;-74
2023/08/30 04:15:47;;;;;;;26.92;13.32;;;;;;;20.12;72.40;98290.34;5130676;28;20023;-74
2023/08/30 04:18:13;;;;;;;19.27;12.70;;;;;;;20.26;72.13;98295.78;5116108;28;20055;-74
2023/08/30 04:20:44;;;;;;;24.17;12.98;;;;;;;20.33;71.79;98295.69;5106690;28;20046;-74
2023/08/30 04:23:09;;;;;;;26.02;13.80;;;;;;;20.29;72.29;98300.63;5114465;28;20062;-74
2023/08/30 04:25:35;;;;;;;26.33;13.05;;;;;;;20.29;72.07;98302.66;5111512;28;20051;-74
2023/08/30 04:28:00;;;;;;;21.13;13.60;;;;;;;20.11;72.59;98294.41;5099637;28;20031;-74
2023/08/30 04:30:26;;;;;;;24.60;11.93;;;;;;;20.25;72.11;98299.88;5115940;28;20073;-74
2023/08/30 04:32:51;;;;;;;25.48;13.45;;;;;;;20.19;72.29;98302.38;5110839;28;20020;-74
2023/08/30 04:35:17;;;;;;;29.70;14.10;;;;;;;20.04;73.14;98301.81;5121971;27;20019;-76
2023/08/30 04:37:42;;;;;;;19.42;13.25;;;;;;;20.12;73.01;98313.06;5111280;27;20127;-74
2023/08/30 04:40:09;;;;;;;182.57;25.08;;;;;;;20.19;72.61;98307.28;5123384;27;20061;-74
2023/08/30 04:42:35;;;;;;;201.57;25.73;;;;;;;20.23;72.76;98310.06;5129079;27;20587;-74
2023/08/30 04:45:02;;;;;;;25.98;13.07;;;;;;;20.22;72.42;98309.25;5096592;28;20027;-73
2023/08/30 04:47:29;;;;;;;23.35;13.73;;;;;;;20.17;72.80;98309.75;5116027;27;20077;-74
2023/08/30 04:49:55;;;;;;;28.75;12.88;;;;;;;20.18;73.04;98314.19;5128270;27;20419;-74
2023/08/30 04:52:21;;;;;;;23.15;13.88;;;;;;;20.26;73.04;98309.19;5122025;27;20032;-75
2023/08/30 04:54:48;;;;;;;17.80;12.57;;;;;;;20.22;72.88;98300.72;5120048;27;20488;-69
2023/08/30 04:57:16;;;;;;;25.38;14.15;;;;;;;20.33;73.00;98307.03;5116969;27;20028;-68
2023/08/30 04:59:45;;;;;;;24.58;14.63;;;;;;;20.46;72.81;98295.91;5117504;27;20122;-68
2023/08/30 05:02:11;;;;;;;26.58;12.27;;;;;;;20.66;72.25;98300.03;5102855;27;20023;-67
2023/08/30 05:04:36;;;;;;;22.95;12.77;;;;;;;20.68;72.10;98298.34;5126959;27;20539;-68
2023/08/30 05:07:05;;;;;;;19.42;12.40;;;;;;;20.65;72.33;98310.59;5132621;27;20105;-68
2023/08/30 05:09:31;;;;;;;34.70;12.63;;;;;;;20.65;72.44;98321.16;5117551;27;20496;-69
2023/08/30 05:11:56;;;;;;;23.88;13.10;;;;;;;20.70;72.17;98314.97;5103870;27;20058;-69
2023/08/30 05:14:22;;;;;;;22.20;13.05;;;;;;;20.77;71.87;98312.81;5104599;27;20054;-72
2023/08/30 05:16:51;;;;;;;26.42;12.18;;;;;;;20.80;71.67;98319.66;5134256;27;20100;-73
2023/08/30 05:19:17;;;;;;;27.55;12.77;;;;;;;20.96;71.67;98315.34;5117146;27;20023;-73
2023/08/30 05:21:43;;;;;;;24.90;14.32;;;;;;;21.06;71.08;98300.13;5108028;27;20572;-71
2023/08/30 05:24:08;;;;;;;110.78;15.57;;;;;;;21.08;71.10;98303.34;5121285;27;20411;-68
2023/08/30 05:26:34;;;;;;;30.67;12.50;;;;;;;21.24;70.95;98307.53;5119851;27;20019;-70
2023/08/30 05:28:59;;;;;;;20.17;11.20;;;;;;;21.30;70.94;98308.63;5106596;27;20028;-73
2023/08/30 05:31:25;;;;;;;23.98;15.40;;;;;;;21.37;70.74;98314.19;5120137;27;20046;-75
2023/08/30 05:33:50;;;;;;;79.57;13.13;;;;;;;21.39;70.95;98325.91;5103547;27;20039;-71
2023/08/30 05:36:17;;;;;;;18.88;11.65;;;;;;;21.39;70.99;98330.78;5105643;27;20027;-68
2023/08/30 05:38:43;;;;;;;15.80;10.77;;;;;;;21.51;70.53;98335.81;5116922;27;20027;-68
2023/08/30 05:41:08;;;;;;;16.58;11.00;;;;;;;21.51;70.66;98341.50;5116348;27;20020;-69
2023/08/30 05:43:34;;;;;;;19.60;11.68;;;;;;;21.40;70.61;98336.03;5113129;28;20024;-71
2023/08/30 05:46:02;;;;;;;18.77;10.23;;;;;;;21.58;70.35;98343.41;5122675;27;20023;-70
2023/08/30 05:48:31;;;;;;;21.45;11.23;;;;;;;21.65;69.68;98333.91;5131951;27;20410;-70
2023/08/30 05:50:56;;;;;;;19.40;11.25;;;;;;;21.70;69.25;98334.22;5129081;27;20110;-69
2023/08/30 05:53:23;;;;;;;26.15;11.13;;;;;;;21.86;68.91;98341.25;5116677;27;20464;-69
2023/08/30 05:55:49;;;;;;;24.23;11.05;;;;;;;21.88;68.97;98344.44;5113510;27;20031;-68
2023/08/30 05:58:15;;;;;;;22.63;11.85;;;;;;;22.00;68.36;98360.84;5098769;27;20060;-68
2023/08/30 06:00:41;;;;;;;18.30;10.35;;;;;;;22.04;68.04;98355.09;5124713;27;20023;-72
2023/08/30 06:03:06;;;;;;;18.20;10.75;;;;;;;22.23;67.51;98358.31;5128093;27;20038;-71
2023/08/30 06:05:33;;;;;;;15.93;10.93;;;;;;;22.36;67.13;98364.13;5097441;27;20088;-69
2023/08/30 06:07:58;;;;;;;18.85;10.90;;;;;;;22.50;66.70;98360.16;5122958;27;20033;-72
2023/08/30 06:10:24;;;;;;;24.95;11.60;;;;;;;22.64;66.01;98353.31;5122569;27;20031;-72
2023/08/30 06:12:49;;;;;;;41.03;12.55;;;;;;;22.68;66.13;98354.81;5115576;27;20034;-71
2023/08/30 06:15:15;;;;;;;24.00;11.70;;;;;;;22.85;65.83;98354.81;5114610;27;20028;-73
2023/08/30 06:17:40;;;;;;;23.90;12.20;;;;;;;22.78;65.87;98350.09;5127225;27;20031;-75
2023/08/30 06:20:06;;;;;;;21.45;11.93;;;;;;;22.75;65.68;98358.75;5108863;27;20026;-77
2023/08/30 06:22:32;;;;;;;25.27;10.32;;;;;;;22.92;65.09;98368.91;5103238;27;20068;-76
2023/08/30 06:24:57;;;;;;;29.20;10.95;;;;;;;22.97;65.29;98365.50;5124481;27;20586;-76
2023/08/30 06:27:24;;;;;;;14.85;10.85;;;;;;;23.11;64.39;98370.03;5125591;27;20488;-76
2023/08/30 06:29:50;;;;;;;17.40;10.07;;;;;;;23.19;64.46;98361.28;5111987;27;20035;-76
2023/08/30 06:32:16;;;;;;;14.88;10.95;;;;;;;23.26;64.21;98355.38;5129495;27;20091;-76
2023/08/30 06:34:42;;;;;;;19.55;10.68;;;;;;;23.58;63.62;98355.75;5135928;27;20479;-76
2023/08/30 06:37:07;;;;;;;17.45;10.52;;;;;;;23.58;63.29;98342.31;5127304;27;20133;-76
2023/08/30 06:39:35;;;;;;;16.92;9.25;;;;;;;23.77;62.11;98343.38;5135230;27;20258;-75
2023/08/30 06:42:00;;;;;;;15.20;9.38;;;;;;;24.07;61.72;98354.78;5118100;27;20436;-77
2023/08/30 06:44:26;;;;;;;14.27;9.13;;;;;;;24.23;60.68;98371.81;5120355;27;20091;-76
2023/08/30 06:46:51;;;;;;;19.80;9.88;;;;;;;23.97;61.00;98368.88;5121455;27;20058;-76
2023/08/30 06:49:17;;;;;;;24.23;10.23;;;;;;;24.24;60.00;98375.47;5125012;27;20510;-75
2023/08/30 06:51:42;;;;;;;15.75;9.43;;;;;;;24.36;59.52;98376.72;5116975;27;20499;-74
2023/08/30 06:54:08;;;;;;;15.00;9.50;;;;;;;24.37;59.24;98376.28;5107282;27;20732;-82
2023/08/30 06:56:33;;;;;;;14.63;9.10;;;;;;;24.54;58.87;98373.28;5130370;27;20027;-76
2023/08/30 06:58:59;;;;;;;14.63;8.23;;;;;;;24.64;57.55;98379.94;5128694;27;20112;-76
2023/08/30 07:01:24;;;;;;;17.17;8.40;;;;;;;24.51;56.45;98389.31;5124688;27;20076;-76
2023/08/30 07:03:50;;;;;;;20.60;8.63;;;;;;;24.51;58.45;98377.88;5119159;27;20028;-78
2023/08/30 07:06:15;;;;;;;18.33;9.88;;;;;;;24.48;57.77;98378.00;5125466;27;20023;-77
2023/08/30 07:08:41;;;;;;;19.73;9.15;;;;;;;24.40;58.15;98386.00;5100814;27;20032;-76
2023/08/30 07:11:06;;;;;;;14.52;8.40;;;;;;;24.49;57.93;98377.53;5109607;27;20026;-79
2023/08/30 07:13:31;;;;;;;15.60;8.70;;;;;;;24.57;57.30;98372.41;5119759;27;20031;-78
2023/08/30 07:15:57;;;;;;;12.90;8.45;;;;;;;24.80;57.29;98367.63;5121008;27;20027;-78
2023/08/30 07:18:22;;;;;;;25.27;8.25;;;;;;;24.86;56.68;98373.53;5120337;27;20027;-78
2023/08/30 07:20:48;;;;;;;15.93;8.77;;;;;;;24.79;56.50;98377.41;5118228;27;20019;-78
2023/08/30 07:23:13;;;;;;;19.65;8.32;;;;;;;24.94;56.44;98369.16;5124459;27;20041;-81
2023/08/30 07:25:39;;;;;;;25.38;9.57;;;;;;;24.88;56.15;98374.66;5103278;28;20468;-77
2023/08/30 07:28:05;;;;;;;14.73;9.10;;;;;;;25.13;56.17;98381.59;5104508;28;20039;-74
2023/08/30 07:30:30;;;;;;;16.00;8.77;;;;;;;25.11;55.41;98369.03;5095921;27;20125;-73
2023/08/30 07:32:57;;;;;;;14.82;8.77;;;;;;;25.26;55.60;98380.75;5107452;28;20054;-79
2023/08/30 07:35:23;;;;;;;18.77;8.93;;;;;;;25.47;55.06;98379.22;5113695;28;20579;-77
2023/08/30 07:37:48;;;;;;;30.23;10.30;;;;;;;25.68;54.40;98379.69;5115228;28;20026;-79
2023/08/30 07:40:14;;;;;;;20.63;9.57;;;;;;;25.89;53.08;98367.44;5112570;28;20376;-76
2023/08/30 07:42:40;;;;;;;25.75;13.00;;;;;;;25.96;52.55;98371.31;5115834;28;20031;-77
2023/08/30 07:45:06;;;;;;;21.65;10.27;;;;;;;25.99;52.54;98370.38;5120972;27;20031;-76
2023/08/30 07:47:31;;;;;;;20.40;10.45;;;;;;;25.96;53.28;98377.06;5100056;28;20027;-75
2023/08/30 07:49:57;;;;;;;14.48;9.80;;;;;;;26.32;52.06;98381.41;5112150;28;20035;-75
2023/08/30 07:52:22;;;;;;;22.65;10.30;;;;;;;26.26;51.97;98380.41;5112172;27;20129;-75
2023/08/30 07:54:47;;;;;;;45.20;12.27;;;;;;;26.21;52.27;98382.63;5092920;28;20032;-75
2023/08/30 07:57:13;;;;;;;11.25;9.35;;;;;;;26.82;50.70;98389.25;5111199;28;20023;-75
2023/08/30 07:59:39;;;;;;;14.00;9.98;;;;;;;26.95;49.92;98384.22;5092835;28;20128;-75
2023/08/30 08:02:06;;;;;;;22.48;10.43;;;;;;;27.21;50.45;98383.13;5111745;28;20028;-75
2023/08/30 08:04:32;;;;;;;12.35;8.55;;;;;;;26.83;50.14;98382.25;5111167;28;20031;-75
2023/08/30 08:06:57;;;;;;;13.50;8.98;;;;;;;26.90;50.54;98376.22;5092789;28;20503;-75
2023/08/30 08:09:23;;;;;;;24.23;9.60;;;;;;;27.10;49.93;98366.38;5092641;28;20031;-75
2023/08/30 08:11:49;;;;;;;14.00;9.63;;;;;;;26.96;49.17;98376.41;5113734;28;20022;-75
2023/08/30 08:14:15;;;;;;;14.48;8.63;;;;;;;27.08;49.39;98371.81;5096466;28;20122;-75
2023/08/30 08:16:40;;;;;;;12.07;9.10;;;;;;;27.31;48.56;98370.41;5114886;28;20065;-75
2023/08/30 08:19:06;;;;;;;12.65;8.88;;;;;;;27.66;48.09;98367.22;5096519;28;20023;-75
2023/08/30 08:21:35;;;;;;;11.77;9.02;;;;;;;27.84;48.55;98363.53;5126361;27;20030;-75
2023/08/30 08:24:01;;;;;;;20.00;9.55;;;;;;;27.57;47.90;98370.91;5116806;27;20176;-75
2023/08/30 08:26:26;;;;;;;20.27;9.93;;;;;;;27.64;48.14;98374.75;5135338;27;20094;-75
2023/08/30 08:28:54;;;;;;;11.93;9.18;;;;;;;27.10;48.80;98369.25;5133585;27;20034;-75
2023/08/30 08:31:19;;;;;;;11.35;9.30;;;;;;;26.96;49.37;98368.59;5135158;27;20031;-75
2023/08/30 08:33:45;;;;;;;21.52;10.45;;;;;;;27.12;49.14;98367.53;5135134;27;20027;-75
2023/08/30 08:36:10;;;;;;;13.88;8.80;;;;;;;26.82;49.80;98366.31;5135145;27;20023;-75
2023/08/30 08:38:36;;;;;;;21.00;10.00;;;;;;;27.16;49.16;98359.53;5135091;27;20027;-75
2023/08/30 08:41:04;;;;;;;11.10;8.82;;;;;;;27.68;49.38;98349.53;5134895;27;20023;-75
2023/08/30 08:43:32;;;;;;;12.85;8.85;;;;;;;27.72;49.31;98353.84;5135023;27;20140;-75
2023/08/30 08:46:00;;;;;;;14.30;9.15;;;;;;;28.13;49.27;98347.03;5134998;27;20139;-75
2023/08/30 08:48:28;;;;;;;18.55;9.20;;;;;;;28.48;47.70;98345.81;5134766;27;20470;-75
2023/08/30 08:50:55;;;;;;;15.07;9.50;;;;;;;28.48;45.98;98345.81;5134696;27;20023;-75
2023/08/30 08:53:21;;;;;;;12.40;8.98;;;;;;;28.05;47.27;98352.34;5134827;27;20028;-75
2023/08/30 08:55:48;;;;;;;13.85;10.95;;;;;;;27.94;47.46;98349.97;5134638;27;20029;-75
2023/08/30 08:58:14;;;;;;;12.35;9.15;;;;;;;28.33;47.90;98348.63;5134694;27;20055;-75
2023/08/30 09:00:44;;;;;;;12.43;9.32;;;;;;;28.19;47.38;98341.47;5116116;27;20027;-75
2023/08/30 09:03:10;;;;;;;14.70;9.48;;;;;;;27.92;47.44;98340.25;5134625;27;20102;-75
2023/08/30 09:05:38;;;;;;;24.65;10.02;;;;;;;28.20;47.12;98341.00;5134463;27;20027;-75
2023/08/30 09:08:05;;;;;;;15.00;9.40;;;;;;;28.71;48.11;98339.31;5134498;27;20418;-75
2023/08/30 09:10:34;;;;;;;9.85;8.57;;;;;;;28.86;46.36;98333.66;5134406;27;20023;-75
2023/08/30 09:13:00;;;;;;;13.77;9.77;;;;;;;29.17;45.40;98330.91;5115987;27;20027;-75
2023/08/30 09:15:32;;;;;;;16.45;9.25;;;;;;;28.71;45.44;98336.44;5134363;27;20388;-75
2023/08/30 09:17:58;;;;;;;12.77;8.93;;;;;;;29.27;45.27;98324.56;5134494;27;20023;-75
2023/08/30 09:20:23;;;;;;;12.38;8.70;;;;;;;29.65;44.67;98330.03;5134268;27;20107;-75
2023/08/30 09:22:50;;;;;;;16.42;9.20;;;;;;;29.64;43.48;98326.38;5114943;27;20475;-76
2023/08/30 09:25:36;;;;;;;16.45;10.63;;;;;;;29.67;42.81;98321.69;5134193;27;20468;-75
2023/08/30 09:28:01;;;;;;;16.23;10.27;;;;;;;29.62;43.08;98308.00;5133569;27;20046;-75
2023/08/30 09:30:27;;;;;;;11.68;9.32;;;;;;;29.60;44.40;98313.47;5133931;27;20407;-75
2023/08/30 09:32:53;;;;;;;15.07;10.50;;;;;;;30.27;43.69;98301.53;5115670;27;20405;-76
2023/08/30 09:35:18;;;;;;;11.20;8.52;;;;;;;30.09;41.60;98305.41;5115533;27;20060;-75
2023/08/30 09:37:47;;;;;;;13.40;9.30;;;;;;;29.68;42.58;98294.47;5134063;27;20031;-76
2023/08/30 09:40:18;;;;;;;11.93;9.13;;;;;;;30.06;41.68;98295.72;5133812;27;20038;-76
2023/08/30 09:42:44;;;;;;;20.17;10.32;;;;;;;30.11;41.35;98300.75;5133899;27;20023;-75
2023/08/30 09:45:22;;;;;;;19.15;10.38;;;;;;;30.36;41.58;98300.63;5133676;27;20038;-76
2023/08/30 09:47:49;;;;;;;14.73;9.10;;;;;;;29.16;42.90;98294.78;5133742;27;20110;-76
2023/08/30 09:50:18;;;;;;;12.18;8.93;;;;;;;29.70;42.06;98286.94;5133608;27;20027;-76
2023/08/30 09:52:49;;;;;;;23.73;10.02;;;;;;;30.24;41.53;98288.91;5115277;27;20396;-76
2023/08/30 09:55:15;;;;;;;16.02;9.05;;;;;;;30.21;43.06;98292.00;5133538;27;20091;-76
2023/08/30 09:57:45;;;;;;;11.45;9.70;;;;;;;30.53;42.25;98300.88;5115034;27;20019;-76
2023/08/30 10:00:12;;;;;;;12.93;9.82;;;;;;;30.17;41.22;98292.19;5133462;27;20019;-76
2023/08/30 10:02:41;;;;;;;13.15;9.90;;;;;;;30.36;42.00;98289.88;5133512;27;20035;-76
2023/08/30 10:05:08;;;;;;;10.50;9.40;;;;;;;31.01;41.47;98291.06;5114978;27;20019;-76
2023/08/30 10:07:36;;;;;;;10.27;9.25;;;;;;;31.18;39.96;98284.69;5133391;27;20023;-76
2023/08/30 10:10:04;;;;;;;17.88;10.68;;;;;;;31.19;39.82;98284.19;5133205;27;20084;-76
2023/08/30 10:12:32;;;;;;;11.63;9.50;;;;;;;31.37;40.66;98283.13;5133271;27;20023;-76
2023/08/30 10:14:58;;;;;;;13.52;9.70;;;;;;;31.27;39.69;98296.13;5133229;27;20441;-76
2023/08/30 10:17:28;;;;;;;11.45;9.75;;;;;;;31.38;39.36;98289.69;5133161;27;20030;-76
2023/08/30 10:19:55;;;;;;;11.25;10.10;;;;;;;31.23;40.56;98284.00;5114643;27;20015;-76
2023/08/30 10:22:23;;;;;;;13.13;9.98;;;;;;;31.37;38.78;98288.88;5132899;27;20023;-76
2023/08/30 10:24:59;;;;;;;12.73;9.88;;;;;;;31.65;39.11;98287.59;5133002;27;20483;-76
2023/08/30 10:27:26;;;;;;;10.88;9.77;;;;;;;31.76;39.30;98281.94;5131328;27;20375;-76
2023/08/30 10:29:52;;;;;;;10.82;9.73;;;;;;;31.74;38.95;98286.63;5094400;28;20040;-76
2023/08/30 10:32:21;;;;;;;13.85;10.25;;;;;;;31.79;37.59;98283.81;5112312;28;20178;-76
2023/08/30 10:34:51;;;;;;;17.93;10.77;;;;;;;31.48;37.28;98281.66;5093736;28;20411;-76
2023/08/30 10:37:26;;;;;;;28.10;11.50;;;;;;;30.87;39.13;98269.63;5112271;28;20500;-76
2023/08/30 10:39:51;;;;;;;11.10;9.35;;;;;;;31.13;38.73;98268.88;5093874;28;20024;-76
2023/08/30 10:42:22;;;;;;;24.10;11.38;;;;;;;31.70;38.51;98268.75;5093793;28;20027;-76
2023/08/30 10:44:52;;;;;;;12.70;9.38;;;;;;;31.86;37.95;98268.13;5112061;28;20053;-76
2023/08/30 10:47:19;;;;;;;13.68;10.30;;;;;;;32.11;37.04;98262.03;5112002;28;20531;-76
2023/08/30 10:49:47;;;;;;;17.92;10.02;;;;;;;31.70;36.01;98254.28;5111944;28;20095;-76
2023/08/30 10:52:12;;;;;;;14.65;10.25;;;;;;;31.31;36.74;98261.25;5111917;28;20088;-76
2023/08/30 10:54:38;;;;;;;16.30;9.18;;;;;;;30.96;37.36;98254.28;5112032;28;20027;-76
2023/08/30 10:57:04;;;;;;;42.88;11.30;;;;;;;30.83;38.02;98245.97;5112524;28;20027;-76
2023/08/30 10:59:30;;;;;;;14.63;9.23;;;;;;;30.91;37.70;98244.25;5111687;28;20623;-76
2023/08/30 11:01:55;;;;;;;13.02;9.30;;;;;;;31.15;36.98;98254.75;5111743;28;20071;-76
2023/08/30 11:04:22;;;;;;;13.45;9.02;;;;;;;31.41;36.58;98256.09;5111886;28;20027;-76
2023/08/30 11:06:50;;;;;;;15.32;8.70;;;;;;;31.65;35.85;98256.59;5111693;28;20027;-76
2023/08/30 11:09:19;;;;;;;10.68;8.73;;;;;;;31.20;34.60;98245.34;5093516;28;20038;-76
2023/08/30 11:11:46;;;;;;;11.90;9.63;;;;;;;31.48;34.94;98242.00;5111547;28;20080;-76
2023/08/30 11:14:13;;;;;;;20.48;9.75;;;;;;;31.37;35.21;98241.88;5093430;28;20491;-76
2023/08/30 11:16:39;;;;;;;12.13;10.15;;;;;;;31.42;35.19;98235.38;5111533;28;20028;-76